Time;durP1;ratioP1;P1;durP2;ratioP2;P2;SDS_P1;SDS_P2;PMS_P1;PMS_P2;Temp;Humidity;BMP_temperature;BMP_pressure;BME280_temperature;BME280_humidity;BME280_pressure;Samples;Min_cycle;Max_cycle;Signal;HPM_P1;HPM_P2
2024/02/14 00:04:45;;;;;;;;;;;;;;;5.45;100.00;94469.75;10526472;28;19931;-79
2024/02/14 00:09:46;;;;;;;;;;;;;;;5.55;100.00;94475.22;10503438;28;19916;-80
2024/02/14 00:14:48;;;;;;;;;;;;;;;5.73;100.00;94494.63;10508214;28;20401;-82
2024/02/14 00:19:48;;;;;;;;;;;;;;;5.36;100.00;94488.03;10503433;28;19962;-75
2024/02/14 00:24:49;;;;;;;;;;;;;;;5.55;100.00;94480.53;10503861;28;20387;-82
2024/02/14 00:29:49;;;;;;;;;;;;;;;5.53;100.00;94488.00;10515242;28;20007;-80
2024/02/14 00:34:49;;;;;;;;;;;;;;;5.47;100.00;94495.13;10513286;28;19924;-82
2024/02/14 00:39:51;;;;;;;;;;;;;;;5.31;100.00;94496.75;10531981;28;19919;-80
2024/02/14 00:44:52;;;;;;;;;;;;;;;5.09;100.00;94495.91;10514502;28;20345;-82
2024/02/14 00:49:52;;;;;;;;;;;;;;;5.32;100.00;94497.56;10514104;28;19916;-80
2024/02/14 00:54:52;;;;;;;;;;;;;;;5.31;100.00;94494.09;10532435;28;20012;-79
2024/02/14 00:59:56;;;;;;;;;;;;;;;5.37;100.00;94499.50;10533737;28;19943;-80
2024/02/14 01:04:57;;;;;;;;;;;;;;;5.48;100.00;94502.06;10513868;28;20370;-86
2024/02/14 01:09:58;;;;;;;;;;;;;;;5.38;100.00;94501.13;10531820;28;19994;-76
2024/02/14 01:14:58;;;;;;;;;;;;;;;5.19;100.00;94495.25;10532281;28;19915;-85
2024/02/14 01:19:58;;;;;;;;;;;;;;;5.09;100.00;94499.41;10502147;28;19927;-85
2024/02/14 01:24:59;;;;;;;;;;;;;;;5.28;100.00;94499.91;10512352;28;19916;-79
2024/02/14 01:29:59;;;;;;;;;;;;;;;5.25;100.00;94494.28;10532076;28;19912;-77
2024/02/14 01:35:00;;;;;;;;;;;;;;;5.13;100.00;94494.38;10530022;28;20011;-78
2024/02/14 01:40:01;;;;;;;;;;;;;;;5.16;100.00;94493.88;10507885;28;19930;-80
2024/02/14 01:45:02;;;;;;;;;;;;;;;5.40;100.00;94488.34;10490309;28;19999;-80
2024/02/14 01:50:04;;;;;;;;;;;;;;;5.34;100.00;94490.13;10520424;28;19951;-76
2024/02/14 01:55:05;;;;;;;;;;;;;;;5.33;100.00;94488.53;10515316;28;19937;-84
2024/02/14 02:00:08;;;;;;;;;;;;;;;5.48;100.00;94496.75;10512898;28;19916;-76
2024/02/14 02:05:08;;;;;;;;;;;;;;;5.52;100.00;94497.03;10494897;28;19912;-86
2024/02/14 02:10:12;;;;;;;;;;;;;;;5.42;100.00;94497.69;10506022;28;20003;-78
2024/02/14 02:15:15;;;;;;;;;;;;;;;5.53;100.00;94498.66;10491159;28;19930;-79
2024/02/14 02:20:16;;;;;;;;;;;;;;;5.69;100.00;94507.63;10509064;28;19931;-75
2024/02/14 02:25:17;;;;;;;;;;;;;;;5.70;100.00;94500.47;10509712;28;19912;-80
2024/02/14 02:30:19;;;;;;;;;;;;;;;5.67;100.00;94512.44;10510949;28;20374;-85
2024/02/14 02:35:24;;;;;;;;;;;;;;;5.54;100.00;94515.44;10493086;28;20013;-80
2024/02/14 02:40:25;;;;;;;;;;;;;;;5.39;100.00;94510.72;10511211;28;19916;-81
2024/02/14 02:45:25;;;;;;;;;;;;;;;5.46;100.00;94522.03;10527492;28;19923;-79
2024/02/14 02:50:25;;;;;;;;;;;;;;;5.65;100.00;94518.00;10500870;28;20111;-86
2024/02/14 02:55:26;;;;;;;;;;;;;;;5.72;100.00;94538.34;10509295;28;19916;-81
2024/02/14 03:00:26;;;;;;;;;;;;;;;5.81;100.00;94539.53;10510018;28;19912;-82
2024/02/14 03:05:27;;;;;;;;;;;;;;;5.88;100.00;94534.81;10508093;28;19912;-77
2024/02/14 03:10:28;;;;;;;;;;;;;;;5.95;100.00;94540.75;10492150;28;20003;-82
2024/02/14 03:15:29;;;;;;;;;;;;;;;5.83;100.00;94545.41;10508769;28;19982;-77
2024/02/14 03:20:30;;;;;;;;;;;;;;;5.88;100.00;94548.16;10508329;28;19912;-80
2024/02/14 03:25:30;;;;;;;;;;;;;;;5.88;100.00;94564.16;10511517;28;20352;-82
2024/02/14 03:30:32;;;;;;;;;;;;;;;5.89;100.00;94559.59;10526672;28;19913;-82
2024/02/14 03:35:33;;;;;;;;;;;;;;;5.79;100.00;94581.63;10512521;28;19927;-81
2024/02/14 03:40:34;;;;;;;;;;;;;;;5.77;100.00;94579.19;10500059;28;19917;-82
2024/02/14 03:45:34;;;;;;;;;;;;;;;5.83;100.00;94585.41;10525585;28;20374;-84
2024/02/14 03:50:34;;;;;;;;;;;;;;;5.81;100.00;94587.53;10508041;28;20424;-83
2024/02/14 03:55:35;;;;;;;;;;;;;;;5.79;100.00;94590.44;10509343;28;19916;-77
2024/02/14 04:00:39;;;;;;;;;;;;;;;5.94;100.00;94597.03;10513646;28;19912;-81
2024/02/14 04:05:40;;;;;;;;;;;;;;;5.68;100.00;94593.19;10515351;28;19912;-82
2024/02/14 04:10:40;;;;;;;;;;;;;;;5.33;100.00;94595.13;10534092;28;19912;-82
2024/02/14 04:15:42;;;;;;;;;;;;;;;5.51;100.00;94609.22;10515576;28;19923;-81
2024/02/14 04:20:43;;;;;;;;;;;;;;;5.71;100.00;94609.53;10439838;23;20430;-82
2024/02/14 04:25:44;;;;;;;;;;;;;;;5.86;100.00;94614.28;10373171;28;19927;-78
2024/02/14 04:30:45;;;;;;;;;;;;;;;5.51;100.00;94623.34;10375379;28;19917;-81
2024/02/14 04:35:45;;;;;;;;;;;;;;;5.39;100.00;94614.66;10399211;28;19925;-81
2024/02/14 04:40:45;;;;;;;;;;;;;;;5.35;100.00;94621.53;10430569;28;19916;-79
2024/02/14 04:45:48;;;;;;;;;;;;;;;5.47;100.00;94625.72;10431591;28;20231;-81
2024/02/14 04:50:48;;;;;;;;;;;;;;;5.22;100.00;94635.97;10432960;28;19920;-79
2024/02/14 04:55:49;;;;;;;;;;;;;;;5.38;100.00;94640.50;10434231;28;19917;-81
2024/02/14 05:00:49;;;;;;;;;;;;;;;5.00;100.00;94644.69;10409583;28;19932;-79
2024/02/14 05:05:50;;;;;;;;;;;;;;;5.35;100.00;94656.19;10424671;28;20272;-78
2024/02/14 05:10:50;;;;;;;;;;;;;;;5.11;100.00;94657.13;10417690;28;20012;-79
2024/02/14 05:15:51;;;;;;;;;;;;;;;5.19;100.00;94665.75;10408339;28;19944;-80
2024/02/14 05:20:51;;;;;;;;;;;;;;;5.11;100.00;94675.75;10424776;28;20422;-80
2024/02/14 05:25:52;;;;;;;;;;;;;;;5.31;100.00;94677.94;10418311;28;19968;-80
2024/02/14 05:30:53;;;;;;;;;;;;;;;5.51;100.00;94695.31;10366748;28;19920;-79
2024/02/14 05:35:53;;;;;;;;;;;;;;;5.57;100.00;94704.25;10400926;28;19928;-81
2024/02/14 05:40:54;;;;;;;;;;;;;;;5.62;100.00;94718.47;10424965;28;19917;-80
2024/02/14 05:45:55;;;;;;;;;;;;;;;5.73;100.00;94726.59;10426018;28;20320;-81
2024/02/14 05:50:55;;;;;;;;;;;;;;;5.76;100.00;94728.78;10426690;28;19916;-80
2024/02/14 05:55:55;;;;;;;;;;;;;;;5.64;100.00;94735.00;10425273;28;19921;-79
2024/02/14 06:00:56;;;;;;;;;;;;;;;5.46;100.00;94735.25;10424994;28;19913;-82
2024/02/14 06:05:56;;;;;;;;;;;;;;;5.57;100.00;94745.03;10425923;28;19935;-79
2024/02/14 06:10:56;;;;;;;;;;;;;;;5.62;100.00;94752.28;10424794;28;19917;-80
2024/02/14 06:15:56;;;;;;;;;;;;;;;5.68;100.00;94755.84;10425278;28;19925;-80
2024/02/14 06:20:57;;;;;;;;;;;;;;;5.58;100.00;94762.66;10413028;28;19921;-82
2024/02/14 06:25:58;;;;;;;;;;;;;;;5.49;100.00;94766.75;10428018;28;19951;-81
2024/02/14 06:31:00;;;;;;;;;;;;;;;5.64;100.00;94772.34;10408313;28;19913;-81
2024/02/14 06:36:00;;;;;;;;;;;;;;;5.63;100.00;94770.72;10444934;28;20007;-79
2024/02/14 06:41:01;;;;;;;;;;;;;;;5.74;100.00;94776.22;10429514;28;19923;-79
2024/02/14 06:46:01;;;;;;;;;;;;;;;5.58;100.00;94783.97;10429342;28;19913;-80
2024/02/14 06:51:01;;;;;;;;;;;;;;;5.61;100.00;94788.00;10397998;28;20340;-78
2024/02/14 06:56:01;;;;;;;;;;;;;;;5.41;100.00;94796.44;10415393;28;20332;-80
2024/02/14 07:01:03;;;;;;;;;;;;;;;5.54;100.00;94792.66;10428667;28;19916;-80
2024/02/14 07:06:04;;;;;;;;;;;;;;;5.79;100.00;94797.63;10428622;28;19939;-78
2024/02/14 07:11:04;;;;;;;;;;;;;;;6.01;100.00;94811.09;10429289;28;20349;-80
2024/02/14 07:16:04;;;;;;;;;;;;;;;6.06;100.00;94821.06;10430183;28;19921;-80
2024/02/14 07:21:05;;;;;;;;;;;;;;;6.03;100.00;94821.53;10409755;28;20288;-79
2024/02/14 07:26:05;;;;;;;;;;;;;;;6.08;100.00;94822.41;10386908;28;19917;-80
2024/02/14 07:31:06;;;;;;;;;;;;;;;6.25;100.00;94822.44;10409583;28;19908;-79
2024/02/14 07:36:06;;;;;;;;;;;;;;;6.18;100.00;94821.75;10409430;28;20291;-81
2024/02/14 07:41:06;;;;;;;;;;;;;;;6.42;100.00;94834.94;10396526;28;20045;-80
2024/02/14 07:46:07;;;;;;;;;;;;;;;6.60;100.00;94840.03;10423829;28;19946;-81
2024/02/14 07:51:08;;;;;;;;;;;;;;;6.65;100.00;94831.28;10427362;28;19921;-80
2024/02/14 07:56:08;;;;;;;;;;;;;;;6.18;100.00;94836.97;10429907;28;20307;-80
2024/02/14 08:01:08;;;;;;;;;;;;;;;5.98;100.00;94841.72;10430971;28;19916;-79
2024/02/14 08:06:08;;;;;;;;;;;;;;;6.20;100.00;94843.69;10428876;28;19920;-80
2024/02/14 08:11:09;;;;;;;;;;;;;;;6.10;100.00;94847.00;10401809;28;20007;-79
2024/02/14 08:16:09;;;;;;;;;;;;;;;6.07;100.00;94857.34;10415346;28;19959;-81
2024/02/14 08:21:10;;;;;;;;;;;;;;;5.90;100.00;94859.97;10407832;28;19921;-81
2024/02/14 08:26:10;;;;;;;;;;;;;;;5.45;100.00;94867.69;10435827;28;19916;-79
2024/02/14 08:31:11;;;;;;;;;;;;;;;5.66;100.00;94873.41;10430930;28;20617;-80
2024/02/14 08:36:12;;;;;;;;;;;;;;;5.63;100.00;94872.03;10427445;28;19924;-80
2024/02/14 08:41:12;;;;;;;;;;;;;;;5.69;100.00;94878.25;10428335;28;19913;-80
2024/02/14 08:46:13;;;;;;;;;;;;;;;5.81;100.00;94878.22;10428383;28;20371;-79
2024/02/14 08:51:13;;;;;;;;;;;;;;;5.63;100.00;94876.56;10428299;28;20211;-80
2024/02/14 08:56:13;;;;;;;;;;;;;;;5.35;100.00;94893.34;10409939;28;20319;-80
2024/02/14 09:01:15;;;;;;;;;;;;;;;5.39;100.00;94881.19;10428155;28;19917;-80
2024/02/14 09:06:17;;;;;;;;;;;;;;;5.25;100.00;94889.44;10428343;28;19966;-81
2024/02/14 09:11:17;;;;;;;;;;;;;;;5.38;100.00;94895.53;10427129;28;20380;-78
2024/02/14 09:16:22;;;;;;;;;;;;;;;5.77;100.00;94893.09;10427081;28;19986;-80
2024/02/14 09:21:23;;;;;;;;;;;;;;;5.62;100.00;94907.75;10425952;28;20316;-80
2024/02/14 09:26:23;;;;;;;;;;;;;;;5.72;100.00;94919.66;10427192;28;19924;-81
2024/02/14 09:31:23;;;;;;;;;;;;;;;5.89;100.00;94914.34;10427486;28;19917;-81
2024/02/14 09:36:24;;;;;;;;;;;;;;;5.54;100.00;94916.13;10425525;28;20027;-81
2024/02/14 09:41:46;;;;;;;;;;;;;;;5.66;100.00;94924.06;10425081;28;19917;-79
2024/02/14 09:46:48;;;;;;;;;;;;;;;5.57;100.00;94912.19;10408173;28;19919;-79
2024/02/14 09:51:49;;;;;;;;;;;;;;;5.89;100.00;94906.34;10424933;28;19962;-80
2024/02/14 09:56:57;;;;;;;;;;;;;;;6.05;100.00;94910.94;10425866;28;19912;-79
2024/02/14 10:01:57;;;;;;;;;;;;;;;5.46;100.00;94906.63;10407623;28;19912;-80
2024/02/14 10:06:58;;;;;;;;;;;;;;;5.59;100.00;94910.06;10421964;28;20271;-80
2024/02/14 10:11:58;;;;;;;;;;;;;;;5.77;100.00;94914.41;10421913;28;20376;-79
2024/02/14 10:16:58;;;;;;;;;;;;;;;5.79;100.00;94917.63;10421436;28;19917;-78
2024/02/14 10:22:00;;;;;;;;;;;;;;;5.80;100.00;94916.59;10424158;28;20286;-79
2024/02/14 10:27:00;;;;;;;;;;;;;;;5.79;100.00;94902.47;10424343;28;19913;-79
2024/02/14 10:32:01;;;;;;;;;;;;;;;5.59;100.00;94915.41;10424217;28;19987;-81
2024/02/14 10:37:01;;;;;;;;;;;;;;;5.92;100.00;94912.03;10422597;28;19912;-78
2024/02/14 10:42:03;;;;;;;;;;;;;;;6.02;100.00;94899.97;10423978;28;19917;-80
2024/02/14 10:47:07;;;;;;;;;;;;;;;5.69;100.00;94912.13;10424282;28;19925;-79
2024/02/14 10:52:07;;;;;;;;;;;;;;;5.39;100.00;94907.84;10424675;28;20287;-81
2024/02/14 10:57:11;;;;;;;;;;;;;;;5.55;100.00;94895.59;10424514;28;19921;-79
2024/02/14 11:02:12;;;;;;;;;;;;;;;5.12;100.00;94905.66;10423220;28;19913;-80
2024/02/14 11:07:13;;;;;;;;;;;;;;;4.91;100.00;94917.75;10404867;28;20343;-81
2024/02/14 11:12:13;;;;;;;;;;;;;;;4.96;100.00;94921.31;10404039;28;19968;-79
2024/02/14 11:17:13;;;;;;;;;;;;;;;5.33;100.00;94906.91;10422938;28;19920;-79
2024/02/14 11:22:20;;;;;;;;;;;;;;;5.55;100.00;94911.59;10422981;28;19921;-79
2024/02/14 11:27:22;;;;;;;;;;;;;;;5.72;100.00;94915.13;10422203;28;20018;-79
2024/02/14 11:32:22;;;;;;;;;;;;;;;5.72;100.00;94900.97;10420258;28;20028;-80
2024/02/14 11:37:29;;;;;;;;;;;;;;;5.24;100.00;94911.78;10425061;28;19913;-80
2024/02/14 11:42:30;;;;;;;;;;;;;;;5.54;100.00;94901.97;10404952;28;19913;-80
2024/02/14 11:47:31;;;;;;;;;;;;;;;5.84;100.00;94904.41;10452854;28;19917;-79
2024/02/14 11:52:32;;;;;;;;;;;;;;;6.02;100.00;94899.97;10421091;28;20350;-79
2024/02/14 11:57:33;;;;;;;;;;;;;;;6.21;100.00;94905.88;10419837;28;20375;-81
2024/02/14 12:02:34;;;;;;;;;;;;;;;5.65;100.00;94899.28;10421917;28;20054;-80
2024/02/14 12:07:34;;;;;;;;;;;;;;;5.28;100.00;94902.28;10421136;28;20520;-80
2024/02/14 12:12:36;;;;;;;;;;;;;;;5.29;100.00;94893.25;10421891;28;20008;-79
2024/02/14 12:17:37;;;;;;;;;;;;;;;5.28;100.00;94894.28;10423536;28;19920;-79
2024/02/14 12:22:37;;;;;;;;;;;;;;;5.28;100.00;94896.16;10409396;28;19936;-80
2024/02/14 12:27:39;;;;;;;;;;;;;;;5.15;100.00;94889.22;10429145;28;19916;-79
2024/02/14 12:32:39;;;;;;;;;;;;;;;5.26;100.00;94884.91;10429875;28;20379;-79
2024/02/14 12:37:39;;;;;;;;;;;;;;;5.22;100.00;94887.25;10410966;28;20019;-80
2024/02/14 12:42:39;;;;;;;;;;;;;;;5.31;100.00;94885.81;10428462;28;19917;-80
2024/02/14 12:47:43;;;;;;;;;;;;;;;5.31;100.00;94891.13;10430406;28;20007;-80
2024/02/14 12:52:43;;;;;;;;;;;;;;;5.44;100.00;94894.59;10428873;28;20238;-80
2024/02/14 12:57:43;;;;;;;;;;;;;;;5.63;100.00;94900.56;10427897;28;19923;-80
2024/02/14 13:02:44;;;;;;;;;;;;;;;5.84;100.00;94893.75;10428963;28;20307;-81
2024/02/14 13:07:45;;;;;;;;;;;;;;;5.76;100.00;94904.78;10428960;28;20455;-79
2024/02/14 13:12:45;;;;;;;;;;;;;;;5.78;100.00;94908.03;10427456;28;20033;-80
2024/02/14 13:17:46;;;;;;;;;;;;;;;5.72;100.00;94911.66;10428215;28;19947;-79
2024/02/14 13:22:46;;;;;;;;;;;;;;;5.88;100.00;94915.41;10425968;28;20375;-80
2024/02/14 13:27:46;;;;;;;;;;;;;;;5.84;100.00;94914.28;10426932;28;19948;-79
2024/02/14 13:32:47;;;;;;;;;;;;;;;5.61;100.00;94906.13;10408132;28;19921;-79
2024/02/14 13:37:47;;;;;;;;;;;;;;;5.74;100.00;94912.22;10427138;28;20027;-79
2024/02/14 13:42:47;;;;;;;;;;;;;;;6.06;100.00;94909.09;10426104;28;19913;-79
2024/02/14 13:47:48;;;;;;;;;;;;;;;6.24;100.00;94914.22;10426126;28;20298;-79
2024/02/14 13:52:48;;;;;;;;;;;;;;;6.20;100.00;94905.06;10426495;28;19928;-79
2024/02/14 13:57:49;;;;;;;;;;;;;;;6.11;100.00;94918.00;10425606;28;20513;-79
2024/02/14 14:02:49;;;;;;;;;;;;;;;6.04;100.00;94913.84;10425153;28;19912;-80
2024/02/14 14:07:49;;;;;;;;;;;;;;;5.92;100.00;94916.56;10420327;28;20318;-80
2024/02/14 14:12:49;;;;;;;;;;;;;;;5.90;100.00;94924.81;10425055;28;19916;-78
2024/02/14 14:17:50;;;;;;;;;;;;;;;5.89;100.00;94914.34;10423660;28;20287;-79
2024/02/14 14:22:50;;;;;;;;;;;;;;;5.86;100.00;94925.50;10424017;28;19970;-80
2024/02/14 14:27:50;;;;;;;;;;;;;;;5.93;100.00;94923.50;10401442;28;19973;-81
2024/02/14 14:32:52;;;;;;;;;;;;;;;5.87;100.00;94927.94;10418507;28;20278;-79
2024/02/14 14:37:54;;;;;;;;;;;;;;;6.00;100.00;94932.22;10423594;28;19913;-81
2024/02/14 14:42:54;;;;;;;;;;;;;;;5.97;100.00;94938.84;10425956;28;19978;-81
2024/02/14 14:47:56;;;;;;;;;;;;;;;6.03;100.00;94939.75;10421388;28;19917;-81
2024/02/14 14:52:56;;;;;;;;;;;;;;;6.25;100.00;94942.53;10403530;28;19979;-81
2024/02/14 14:57:56;;;;;;;;;;;;;;;6.45;100.00;94944.72;10419278;28;19966;-82
2024/02/14 15:02:57;;;;;;;;;;;;;;;6.60;100.00;94948.69;10422166;28;19935;-80
2024/02/14 15:07:57;;;;;;;;;;;;;;;6.75;100.00;94945.47;10418978;28;20371;-81
2024/02/14 15:12:57;;;;;;;;;;;;;;;6.84;100.00;94944.81;10420178;28;19929;-80
2024/02/14 15:17:57;;;;;;;;;;;;;;;6.95;100.00;94956.47;10421714;28;19965;-80
2024/02/14 15:22:58;;;;;;;;;;;;;;;7.01;100.00;94957.34;10419486;28;19974;-82
2024/02/14 15:27:58;;;;;;;;;;;;;;;7.01;100.00;94960.81;10420369;28;19923;-81
2024/02/14 15:38:18;;;;;;;;;;;;;;;6.90;100.00;94964.38;10420555;28;20102;-81
2024/02/14 15:43:19;;;;;;;;;;;;;;;6.86;100.00;94975.81;10402105;28;19913;-80
2024/02/14 15:48:20;;;;;;;;;;;;;;;6.95;100.00;94977.84;10420260;28;20311;-81
2024/02/14 15:53:20;;;;;;;;;;;;;;;6.96;100.00;94994.66;10418668;28;19935;-79
2024/02/14 15:58:20;;;;;;;;;;;;;;;6.89;100.00;95000.16;10427178;28;20337;-81
2024/02/14 16:03:21;;;;;;;;;;;;;;;6.70;100.00;95006.78;10426614;28;19920;-81
2024/02/14 16:08:21;;;;;;;;;;;;;;;6.77;100.00;95012.81;10428029;28;20526;-82
2024/02/14 16:13:22;;;;;;;;;;;;;;;6.86;100.00;95016.69;10410074;28;20412;-81
2024/02/14 16:18:22;;;;;;;;;;;;;;;6.49;100.00;95030.50;10427631;28;19920;-82
2024/02/14 16:23:23;;;;;;;;;;;;;;;6.52;100.00;95032.69;10427712;28;20453;-78
2024/02/14 16:28:23;;;;;;;;;;;;;;;6.51;100.00;95044.41;10408120;28;19917;-74
2024/02/14 16:33:23;;;;;;;;;;;;;;;6.46;100.00;95055.81;10420014;28;20413;-82
2024/02/14 16:38:24;;;;;;;;;;;;;;;6.42;100.00;95060.00;10402751;28;20229;-73
2024/02/14 16:43:24;;;;;;;;;;;;;;;6.31;100.00;95069.69;10398344;28;19948;-74
2024/02/14 16:48:24;;;;;;;;;;;;;;;6.24;100.00;95060.22;10394357;28;19960;-73
2024/02/14 16:53:25;;;;;;;;;;;;;;;5.86;100.00;95078.38;10406174;28;20333;-73
2024/02/14 16:58:26;;;;;;;;;;;;;;;5.80;100.00;95080.13;10395731;28;19932;-72
2024/02/14 17:03:26;;;;;;;;;;;;;;;5.76;100.00;95080.81;10391580;28;20355;-74
2024/02/14 17:08:26;;;;;;;;;;;;;;;5.64;100.00;95078.97;10397815;28;19921;-73
2024/02/14 17:13:27;;;;;;;;;;;;;;;5.60;100.00;95075.13;10396636;28;19920;-74
2024/02/14 17:18:29;;;;;;;;;;;;;;;5.62;100.00;95088.22;10390516;28;20278;-72
2024/02/14 17:23:29;;;;;;;;;;;;;;;5.38;100.00;95077.56;10388709;28;20330;-72
2024/02/14 17:28:29;;;;;;;;;;;;;;;5.38;100.00;95090.91;10389525;28;19963;-72
2024/02/14 17:33:29;;;;;;;;;;;;;;;5.64;100.00;95094.97;10378803;28;19917;-73
2024/02/14 17:38:31;;;;;;;;;;;;;;;5.43;100.00;95087.56;10390239;28;19920;-73
2024/02/14 17:43:32;;;;;;;;;;;;;;;5.53;100.00;95089.66;10372312;28;19913;-72
2024/02/14 17:48:32;;;;;;;;;;;;;;;5.76;100.00;95096.81;10396390;28;20033;-73
2024/02/14 17:53:33;;;;;;;;;;;;;;;5.69;100.00;95085.44;10370219;28;19921;-73
2024/02/14 17:58:34;;;;;;;;;;;;;;;5.42;100.00;95088.59;10395780;28;19932;-74
2024/02/14 18:03:34;;;;;;;;;;;;;;;5.37;100.00;95085.81;10390702;28;19951;-74
2024/02/14 18:08:35;;;;;;;;;;;;;;;5.54;100.00;95083.25;10389495;28;19913;-74
2024/02/14 18:13:35;;;;;;;;;;;;;;;5.41;100.00;95093.09;10392606;28;19983;-74
2024/02/14 18:18:41;;;;;;;;;;;;;;;5.52;100.00;95094.16;10390634;28;19928;-73
2024/02/14 18:23:41;;;;;;;;;;;;;;;5.65;100.00;95096.59;10393518;28;20347;-74
2024/02/14 18:28:41;;;;;;;;;;;;;;;5.76;100.00;95110.13;10389919;28;20208;-77
2024/02/14 18:33:42;;;;;;;;;;;;;;;5.78;100.00;95113.41;10393800;28;20379;-75
2024/02/14 18:38:42;;;;;;;;;;;;;;;5.81;100.00;95103.06;10389479;28;19936;-75
2024/02/14 18:43:42;;;;;;;;;;;;;;;5.73;100.00;95105.28;10392986;28;19917;-74
2024/02/14 18:48:42;;;;;;;;;;;;;;;5.42;100.00;95107.25;10398727;28;20374;-73
2024/02/14 18:53:46;;;;;;;;;;;;;;;5.44;100.00;95118.47;10391674;28;19917;-77
2024/02/14 18:58:46;;;;;;;;;;;;;;;5.54;100.00;95116.06;10400338;28;19921;-77
2024/02/14 19:03:46;;;;;;;;;;;;;;;5.34;100.00;95132.38;10398155;28;20274;-76
2024/02/14 19:08:50;;;;;;;;;;;;;;;5.30;100.00;95129.38;10391296;28;19919;-78
2024/02/14 19:13:51;;;;;;;;;;;;;;;5.50;100.00;95144.22;10385476;28;19917;-74
2024/02/14 19:18:51;;;;;;;;;;;;;;;5.60;100.00;95139.13;10387747;28;19929;-77
2024/02/14 19:23:52;;;;;;;;;;;;;;;5.48;100.00;95146.31;10371651;28;19913;-76
2024/02/14 19:28:52;;;;;;;;;;;;;;;5.58;100.00;95135.06;10399644;28;20355;-78
2024/02/14 19:33:53;;;;;;;;;;;;;;;5.59;100.00;95139.38;10390850;28;20015;-76
2024/02/14 19:38:53;;;;;;;;;;;;;;;5.08;100.00;95142.44;10376706;28;19920;-76
2024/02/14 19:43:53;;;;;;;;;;;;;;;4.77;100.00;95143.47;10385251;28;19917;-76
2024/02/14 19:48:54;;;;;;;;;;;;;;;4.83;100.00;95137.28;10395220;28;19939;-73
2024/02/14 19:53:55;;;;;;;;;;;;;;;5.10;100.00;95142.19;10392402;28;19924;-78
2024/02/14 19:58:55;;;;;;;;;;;;;;;5.01;100.00;95130.25;10369015;28;20387;-79
2024/02/14 20:03:58;;;;;;;;;;;;;;;4.85;100.00;95137.84;10397166;28;20481;-77
2024/02/14 20:09:00;;;;;;;;;;;;;;;4.57;100.00;95131.25;10388227;28;20319;-77
2024/02/14 20:14:00;;;;;;;;;;;;;;;4.54;100.00;95131.72;10393001;28;20394;-71
2024/02/14 20:19:01;;;;;;;;;;;;;;;4.42;100.00;95131.69;10385121;28;20292;-71
2024/02/14 20:24:03;;;;;;;;;;;;;;;4.52;100.00;95139.13;10383281;28;20313;-71
2024/02/14 20:29:05;;;;;;;;;;;;;;;4.32;100.00;95133.25;10369453;28;19913;-72
2024/02/14 20:34:08;;;;;;;;;;;;;;;4.11;100.00;95144.09;10375668;28;19975;-78
2024/02/14 20:39:08;;;;;;;;;;;;;;;3.97;100.00;95139.97;10392133;28;19960;-75
2024/02/14 20:44:11;;;;;;;;;;;;;;;3.99;100.00;95137.09;10404768;28;20421;-78
2024/02/14 20:49:12;;;;;;;;;;;;;;;3.98;100.00;95140.78;10397275;28;19913;-76
2024/02/14 20:54:12;;;;;;;;;;;;;;;3.85;100.00;95142.56;10406570;28;20295;-76
2024/02/14 20:59:13;;;;;;;;;;;;;;;3.75;100.00;95145.72;10390491;28;20510;-76
2024/02/14 21:04:14;;;;;;;;;;;;;;;3.72;100.00;95142.69;10408899;28;19912;-76
2024/02/14 21:09:14;;;;;;;;;;;;;;;3.74;100.00;95141.44;10398442;28;19917;-73
2024/02/14 21:14:14;;;;;;;;;;;;;;;3.71;100.00;95155.19;10393782;28;19929;-73
2024/02/14 21:19:14;;;;;;;;;;;;;;;3.76;100.00;95150.00;10387689;28;20426;-75
2024/02/14 21:24:14;;;;;;;;;;;;;;;3.71;100.00;95143.72;10397598;28;20019;-77
2024/02/14 21:29:15;;;;;;;;;;;;;;;3.75;100.00;95145.72;10384206;28;20339;-71
2024/02/14 21:34:17;;;;;;;;;;;;;;;3.82;100.00;95148.31;10374838;28;19920;-74
2024/02/14 21:39:17;;;;;;;;;;;;;;;3.56;100.00;95152.84;10394251;28;20459;-72
2024/02/14 21:44:20;;;;;;;;;;;;;;;3.68;100.00;95147.63;10377277;28;19925;-75
2024/02/14 21:49:20;;;;;;;;;;;;;;;3.71;100.00;95154.34;10389705;28;19913;-76
2024/02/14 21:54:22;;;;;;;;;;;;;;;3.48;100.00;95149.69;10395084;28;19924;-77
2024/02/14 21:59:24;;;;;;;;;;;;;;;3.38;100.00;95144.84;10396247;28;19924;-71
2024/02/14 22:04:24;;;;;;;;;;;;;;;3.37;100.00;95154.66;10386053;28;20311;-76
2024/02/14 22:09:26;;;;;;;;;;;;;;;3.56;100.00;95155.50;10380099;28;19920;-74
2024/02/14 22:14:26;;;;;;;;;;;;;;;3.78;100.00;95152.44;10386427;28;20375;-76
2024/02/14 22:19:27;;;;;;;;;;;;;;;3.88;100.00;95155.41;10393549;28;19947;-77
2024/02/14 22:24:28;;;;;;;;;;;;;;;3.76;100.00;95157.97;10392967;28;19936;-76
2024/02/14 22:29:29;;;;;;;;;;;;;;;3.73;100.00;95157.63;10386058;28;20008;-74
2024/02/14 22:34:29;;;;;;;;;;;;;;;3.51;100.00;95160.66;10379600;28;19921;-74
2024/02/14 22:39:29;;;;;;;;;;;;;;;3.52;100.00;95151.66;10392619;28;19964;-74
2024/02/14 22:44:30;;;;;;;;;;;;;;;3.53;100.00;95163.94;10397713;28;19920;-74
2024/02/14 22:49:30;;;;;;;;;;;;;;;3.72;100.00;95148.00;10391602;28;19916;-74
2024/02/14 22:54:30;;;;;;;;;;;;;;;3.83;100.00;95152.59;10414085;28;20296;-76
2024/02/14 22:59:30;;;;;;;;;;;;;;;3.97;100.00;95149.81;10424803;28;19916;-75
2024/02/14 23:04:33;;;;;;;;;;;;;;;4.07;100.00;95153.56;10422427;28;19983;-75
2024/02/14 23:09:36;;;;;;;;;;;;;;;3.72;100.00;95158.63;10413391;28;19913;-78
2024/02/14 23:14:36;;;;;;;;;;;;;;;3.39;100.00;95154.44;10423232;28;19920;-75
2024/02/14 23:19:38;;;;;;;;;;;;;;;3.69;100.00;95161.75;10423095;28;19925;-75
2024/02/14 23:24:38;;;;;;;;;;;;;;;3.75;100.00;95152.88;10423602;28;19978;-75
2024/02/14 23:29:39;;;;;;;;;;;;;;;3.86;100.00;95151.34;10423307;28;19912;-76
2024/02/14 23:34:39;;;;;;;;;;;;;;;3.98;100.00;95162.06;10421464;28;20288;-75
2024/02/14 23:39:40;;;;;;;;;;;;;;;4.00;100.00;95150.16;10421569;28;19919;-76
2024/02/14 23:44:40;;;;;;;;;;;;;;;3.91;100.00;95160.28;10422168;28;19979;-76
2024/02/14 23:49:40;;;;;;;;;;;;;;;3.65;100.00;95155.25;10421920;28;19928;-75
2024/02/14 23:54:41;;;;;;;;;;;;;;;3.38;100.00;95155.47;10421254;28;20312;-76
2024/02/14 23:59:41;;;;;;;;;;;;;;;3.20;100.00;95156.25;10425898;28;19913;-76
